sensor_id;sensor_type;location;lat;lon;timestamp;pressure;altitude;pressure_sealevel;temperature;humidity
19748;BME280;10032;51.386;12.516;2022-12-07T00:00:42;100041.09;;;4.49;100.00
19748;BME280;10032;51.386;12.516;2022-12-07T00:03:08;100033.69;;;4.45;100.00
19748;BME280;10032;51.386;12.516;2022-12-07T00:05:33;100030.63;;;4.41;100.00
19748;BME280;10032;51.386;12.516;2022-12-07T00:07:59;100030.63;;;4.41;100.00
19748;BME280;10032;51.386;12.516;2022-12-07T00:10:24;100028.16;;;4.40;100.00
19748;BME280;10032;51.386;12.516;2022-12-07T00:12:49;100025.66;;;4.38;100.00
19748;BME280;10032;51.386;12.516;2022-12-07T00:15:15;100022.59;;;4.35;100.00
19748;BME280;10032;51.386;12.516;2022-12-07T00:17:41;100020.50;;;4.37;100.00
19748;BME280;10032;51.386;12.516;2022-12-07T00:20:06;100016.38;;;4.41;100.00
19748;BME280;10032;51.386;12.516;2022-12-07T00:22:32;100018.47;;;4.39;100.00
19748;BME280;10032;51.386;12.516;2022-12-07T00:24:57;100016.59;;;4.39;100.00
19748;BME280;10032;51.386;12.516;2022-12-07T00:27:23;100011.66;;;4.36;100.00
19748;BME280;10032;51.386;12.516;2022-12-07T00:29:48;99999.28;;;4.35;100.00
19748;BME280;10032;51.386;12.516;2022-12-07T00:32:13;100004.47;;;4.30;100.00
19748;BME280;10032;51.386;12.516;2022-12-07T00:34:39;100005.09;;;4.26;100.00
19748;BME280;10032;51.386;12.516;2022-12-07T00:37:04;100008.22;;;4.23;100.00
19748;BME280;10032;51.386;12.516;2022-12-07T00:39:30;100013.38;;;4.18;100.00
19748;BME280;10032;51.386;12.516;2022-12-07T00:41:55;100014.19;;;4.18;100.00
19748;BME280;10032;51.386;12.516;2022-12-07T00:44:20;99997.31;;;4.18;100.00
19748;BME280;10032;51.386;12.516;2022-12-07T00:46:46;99996.91;;;4.14;100.00
19748;BME280;10032;51.386;12.516;2022-12-07T00:49:11;99996.47;;;4.17;100.00
19748;BME280;10032;51.386;12.516;2022-12-07T00:51:37;99998.09;;;4.18;100.00
19748;BME280;10032;51.386;12.516;2022-12-07T00:54:02;99992.97;;;4.17;100.00
19748;BME280;10032;51.386;12.516;2022-12-07T00:56:29;99993.59;;;4.19;100.00
19748;BME280;10032;51.386;12.516;2022-12-07T00:58:59;99994.38;;;4.19;100.00
19748;BME280;10032;51.386;12.516;2022-12-07T01:01:27;99996.06;;;4.20;100.00
19748;BME280;10032;51.386;12.516;2022-12-07T01:03:53;99992.72;;;4.25;100.00
19748;BME280;10032;51.386;12.516;2022-12-07T01:06:20;99993.75;;;4.24;100.00
19748;BME280;10032;51.386;12.516;2022-12-07T01:08:46;99988.22;;;4.19;100.00
19748;BME280;10032;51.386;12.516;2022-12-07T01:11:17;99985.75;;;4.17;100.00
19748;BME280;10032;51.386;12.516;2022-12-07T01:13:43;99980.41;;;4.11;100.00
19748;BME280;10032;51.386;12.516;2022-12-07T01:16:14;99980.84;;;4.01;100.00
19748;BME280;10032;51.386;12.516;2022-12-07T01:18:40;99990.34;;;3.97;100.00
19748;BME280;10032;51.386;12.516;2022-12-07T01:21:09;99981.09;;;3.93;100.00
19748;BME280;10032;51.386;12.516;2022-12-07T01:23:36;99986.03;;;3.90;100.00
19748;BME280;10032;51.386;12.516;2022-12-07T01:26:06;99981.72;;;3.82;100.00
19748;BME280;10032;51.386;12.516;2022-12-07T01:28:32;99984.25;;;3.77;100.00
19748;BME280;10032;51.386;12.516;2022-12-07T01:31:00;99980.75;;;3.70;100.00
19748;BME280;10032;51.386;12.516;2022-12-07T01:33:28;99982.19;;;3.66;100.00
19748;BME280;10032;51.386;12.516;2022-12-07T01:35:54;99982.63;;;3.63;100.00
19748;BME280;10032;51.386;12.516;2022-12-07T01:38:19;99978.50;;;3.61;100.00
19748;BME280;10032;51.386;12.516;2022-12-07T01:40:45;99982.22;;;3.53;100.00
19748;BME280;10032;51.386;12.516;2022-12-07T01:43:16;99975.22;;;3.52;100.00
19748;BME280;10032;51.386;12.516;2022-12-07T01:45:43;99970.91;;;3.45;100.00
19748;BME280;10032;51.386;12.516;2022-12-07T01:48:10;99968.22;;;3.38;100.00
19748;BME280;10032;51.386;12.516;2022-12-07T01:50:37;99967.00;;;3.34;100.00
19748;BME280;10032;51.386;12.516;2022-12-07T01:53:06;99963.72;;;3.32;100.00
19748;BME280;10032;51.386;12.516;2022-12-07T01:55:35;99957.13;;;3.28;100.00
19748;BME280;10032;51.386;12.516;2022-12-07T01:58:03;99962.91;;;3.25;100.00
19748;BME280;10032;51.386;12.516;2022-12-07T02:00:29;99961.22;;;3.24;100.00
19748;BME280;10032;51.386;12.516;2022-12-07T02:03:00;99964.75;;;3.18;100.00
19748;BME280;10032;51.386;12.516;2022-12-07T02:05:28;99961.25;;;3.11;100.00
19748;BME280;10032;51.386;12.516;2022-12-07T02:07:55;99960.66;;;3.09;100.00
19748;BME280;10032;51.386;12.516;2022-12-07T02:10:24;99960.84;;;3.14;100.00
19748;BME280;10032;51.386;12.516;2022-12-07T02:13:00;99948.50;;;3.07;100.00
19748;BME280;10032;51.386;12.516;2022-12-07T02:21:45;99940.66;;;2.92;100.00
19748;BME280;10032;51.386;12.516;2022-12-07T02:24:38;99936.56;;;2.90;100.00
19748;BME280;10032;51.386;12.516;2022-12-07T02:29:46;99940.06;;;2.84;100.00
19748;BME280;10032;51.386;12.516;2022-12-07T02:32:20;99946.88;;;2.80;100.00
19748;BME280;10032;51.386;12.516;2022-12-07T02:42:38;99922.59;;;2.75;100.00
19748;BME280;10032;51.386;12.516;2022-12-07T02:45:07;99909.41;;;2.73;100.00
19748;BME280;10032;51.386;12.516;2022-12-07T02:47:34;99907.78;;;2.72;100.00
19748;BME280;10032;51.386;12.516;2022-12-07T02:50:04;99907.13;;;2.70;100.00
19748;BME280;10032;51.386;12.516;2022-12-07T02:52:30;99903.66;;;2.70;100.00
19748;BME280;10032;51.386;12.516;2022-12-07T02:54:55;99906.09;;;2.71;100.00
19748;BME280;10032;51.386;12.516;2022-12-07T03:00:24;99898.28;;;2.63;100.00
19748;BME280;10032;51.386;12.516;2022-12-07T03:02:52;99900.75;;;2.65;100.00
19748;BME280;10032;51.386;12.516;2022-12-07T03:13:29;99890.47;;;2.62;100.00
19748;BME280;10032;51.386;12.516;2022-12-07T03:16:05;99893.34;;;2.60;100.00
19748;BME280;10032;51.386;12.516;2022-12-07T03:18:37;99894.56;;;2.58;100.00
19748;BME280;10032;51.386;12.516;2022-12-07T03:21:08;99884.31;;;2.61;100.00
19748;BME280;10032;51.386;12.516;2022-12-07T03:23:38;99895.00;;;2.61;100.00
19748;BME280;10032;51.386;12.516;2022-12-07T03:26:09;99890.06;;;2.58;100.00
19748;BME280;10032;51.386;12.516;2022-12-07T03:28:39;99881.44;;;2.56;100.00
19748;BME280;10032;51.386;12.516;2022-12-07T03:31:32;99881.84;;;2.53;100.00
19748;BME280;10032;51.386;12.516;2022-12-07T03:36:38;99869.91;;;2.56;100.00
19748;BME280;10032;51.386;12.516;2022-12-07T03:41:39;99872.38;;;2.57;100.00
19748;BME280;10032;51.386;12.516;2022-12-07T03:44:05;99869.06;;;2.62;100.00
19748;BME280;10032;51.386;12.516;2022-12-07T03:57:04;99862.06;;;2.74;100.00
19748;BME280;10032;51.386;12.516;2022-12-07T03:59:30;99859.00;;;2.77;100.00
19748;BME280;10032;51.386;12.516;2022-12-07T04:02:01;99863.72;;;2.81;100.00
19748;BME280;10032;51.386;12.516;2022-12-07T04:04:27;99857.97;;;2.84;100.00
19748;BME280;10032;51.386;12.516;2022-12-07T04:06:53;99857.53;;;2.87;100.00
19748;BME280;10032;51.386;12.516;2022-12-07T04:09:18;99859.59;;;2.85;100.00
19748;BME280;10032;51.386;12.516;2022-12-07T04:11:44;99851.38;;;2.87;100.00
19748;BME280;10032;51.386;12.516;2022-12-07T04:14:10;99851.78;;;2.90;100.00
19748;BME280;10032;51.386;12.516;2022-12-07T04:17:04;99843.97;;;2.89;100.00
19748;BME280;10032;51.386;12.516;2022-12-07T04:19:32;99841.09;;;2.90;100.00
19748;BME280;10032;51.386;12.516;2022-12-07T04:21:59;99832.22;;;2.90;100.00
19748;BME280;10032;51.386;12.516;2022-12-07T04:24:26;99829.56;;;2.90;100.00
19748;BME280;10032;51.386;12.516;2022-12-07T04:26:52;99822.97;;;2.92;100.00
19748;BME280;10032;51.386;12.516;2022-12-07T04:29:17;99827.31;;;2.93;100.00
19748;BME280;10032;51.386;12.516;2022-12-07T04:31:43;99822.56;;;2.95;100.00
19748;BME280;10032;51.386;12.516;2022-12-07T04:34:09;99815.13;;;2.97;100.00
19748;BME280;10032;51.386;12.516;2022-12-07T04:36:35;99811.84;;;2.95;100.00
19748;BME280;10032;51.386;12.516;2022-12-07T04:39:01;99815.13;;;2.97;100.00
19748;BME280;10032;51.386;12.516;2022-12-07T04:41:27;99810.41;;;2.99;100.00
19748;BME280;10032;51.386;12.516;2022-12-07T04:43:59;99811.03;;;3.01;100.00
19748;BME280;10032;51.386;12.516;2022-12-07T04:46:26;99813.06;;;3.06;100.00
19748;BME280;10032;51.386;12.516;2022-12-07T04:48:53;99814.28;;;3.10;100.00
19748;BME280;10032;51.386;12.516;2022-12-07T04:51:21;99811.41;;;3.11;100.00
19748;BME280;10032;51.386;12.516;2022-12-07T04:53:47;99804.59;;;3.15;100.00
19748;BME280;10032;51.386;12.516;2022-12-07T04:56:13;99807.09;;;3.17;100.00
19748;BME280;10032;51.386;12.516;2022-12-07T04:58:39;99802.75;;;3.16;100.00
19748;BME280;10032;51.386;12.516;2022-12-07T05:01:04;99808.50;;;3.19;100.00
19748;BME280;10032;51.386;12.516;2022-12-07T05:03:30;99806.25;;;3.16;100.00
19748;BME280;10032;51.386;12.516;2022-12-07T05:05:55;99801.50;;;3.18;100.00
19748;BME280;10032;51.386;12.516;2022-12-07T05:08:21;99796.97;;;3.19;100.00
19748;BME280;10032;51.386;12.516;2022-12-07T05:10:48;99793.47;;;3.18;100.00
19748;BME280;10032;51.386;12.516;2022-12-07T05:13:13;99796.97;;;3.19;100.00
19748;BME280;10032;51.386;12.516;2022-12-07T05:15:39;99790.78;;;3.18;100.00
19748;BME280;10032;51.386;12.516;2022-12-07T05:18:04;99790.59;;;3.20;100.00
19748;BME280;10032;51.386;12.516;2022-12-07T05:20:30;99797.56;;;3.21;100.00
19748;BME280;10032;51.386;12.516;2022-12-07T05:22:55;99795.75;;;3.21;100.00
19748;BME280;10032;51.386;12.516;2022-12-07T05:25:23;99792.03;;;3.22;100.00
19748;BME280;10032;51.386;12.516;2022-12-07T05:27:49;99790.78;;;3.25;100.00
19748;BME280;10032;51.386;12.516;2022-12-07T05:30:14;99790.38;;;3.28;100.00
19748;BME280;10032;51.386;12.516;2022-12-07T05:32:40;99787.91;;;3.26;100.00
19748;BME280;10032;51.386;12.516;2022-12-07T05:35:05;99792.41;;;3.26;100.00
19748;BME280;10032;51.386;12.516;2022-12-07T05:37:31;99789.53;;;3.27;100.00
19748;BME280;10032;51.386;12.516;2022-12-07T05:39:56;99786.66;;;3.29;100.00
19748;BME280;10032;51.386;12.516;2022-12-07T05:42:22;99787.63;;;3.34;100.00
19748;BME280;10032;51.386;12.516;2022-12-07T05:44:47;99783.50;;;3.38;100.00
19748;BME280;10032;51.386;12.516;2022-12-07T05:47:14;99776.13;;;3.40;100.00
19748;BME280;10032;51.386;12.516;2022-12-07T05:49:40;99773.00;;;3.43;100.00
19748;BME280;10032;51.386;12.516;2022-12-07T05:52:05;99776.91;;;3.47;100.00
19748;BME280;10032;51.386;12.516;2022-12-07T05:54:31;99775.03;;;3.48;100.00
19748;BME280;10032;51.386;12.516;2022-12-07T05:56:57;99770.50;;;3.48;100.00
19748;BME280;10032;51.386;12.516;2022-12-07T05:59:22;99767.81;;;3.48;100.00
19748;BME280;10032;51.386;12.516;2022-12-07T06:01:56;99772.75;;;3.51;100.00
19748;BME280;10032;51.386;12.516;2022-12-07T06:04:23;99775.38;;;3.58;100.00
19748;BME280;10032;51.386;12.516;2022-12-07T06:06:50;99774.59;;;3.57;100.00
19748;BME280;10032;51.386;12.516;2022-12-07T06:09:16;99769.22;;;3.57;100.00
19748;BME280;10032;51.386;12.516;2022-12-07T06:11:41;99764.66;;;3.58;100.00
19748;BME280;10032;51.386;12.516;2022-12-07T06:14:25;99772.09;;;3.62;100.00
19748;BME280;10032;51.386;12.516;2022-12-07T06:16:51;99763.81;;;3.64;100.00
19748;BME280;10032;51.386;12.516;2022-12-07T06:19:16;99763.41;;;3.67;100.00
19748;BME280;10032;51.386;12.516;2022-12-07T06:21:42;99756.41;;;3.66;100.00
19748;BME280;10032;51.386;12.516;2022-12-07T06:24:10;99767.91;;;3.66;100.00
19748;BME280;10032;51.386;12.516;2022-12-07T06:26:37;99770.38;;;3.68;100.00
19748;BME280;10032;51.386;12.516;2022-12-07T06:29:03;99762.16;;;3.69;100.00
19748;BME280;10032;51.386;12.516;2022-12-07T06:31:28;99764.44;;;3.66;100.00
19748;BME280;10032;51.386;12.516;2022-12-07T06:33:59;99760.94;;;3.65;100.00
19748;BME280;10032;51.386;12.516;2022-12-07T06:36:24;99762.19;;;3.63;100.00
19748;BME280;10032;51.386;12.516;2022-12-07T06:38:50;99761.38;;;3.62;100.00
19748;BME280;10032;51.386;12.516;2022-12-07T06:41:15;99763.41;;;3.60;100.00
19748;BME280;10032;51.386;12.516;2022-12-07T06:43:41;99770.66;;;3.60;100.00
19748;BME280;10032;51.386;12.516;2022-12-07T06:46:07;99768.84;;;3.54;100.00
19748;BME280;10032;51.386;12.516;2022-12-07T06:48:32;99775.00;;;3.54;100.00
19748;BME280;10032;51.386;12.516;2022-12-07T06:50:58;99787.34;;;3.55;100.00
19748;BME280;10032;51.386;12.516;2022-12-07T06:53:23;99784.66;;;3.55;100.00
19748;BME280;10032;51.386;12.516;2022-12-07T06:55:49;99777.25;;;3.57;100.00
19748;BME280;10032;51.386;12.516;2022-12-07T06:58:14;99780.53;;;3.59;100.00
19748;BME280;10032;51.386;12.516;2022-12-07T07:00:40;99778.03;;;3.64;100.00
19748;BME280;10032;51.386;12.516;2022-12-07T07:03:05;99774.09;;;3.67;100.00
19748;BME280;10032;51.386;12.516;2022-12-07T07:05:31;99766.25;;;3.72;100.00
19748;BME280;10032;51.386;12.516;2022-12-07T07:07:56;99775.72;;;3.74;100.00
19748;BME280;10032;51.386;12.516;2022-12-07T07:10:22;99770.34;;;3.74;100.00
19748;BME280;10032;51.386;12.516;2022-12-07T07:12:47;99779.00;;;3.76;100.00
19748;BME280;10032;51.386;12.516;2022-12-07T07:15:13;99781.47;;;3.78;100.00
19748;BME280;10032;51.386;12.516;2022-12-07T07:17:38;99788.03;;;3.82;100.00
19748;BME280;10032;51.386;12.516;2022-12-07T07:20:04;99798.53;;;3.83;100.00
19748;BME280;10032;51.386;12.516;2022-12-07T07:22:30;99786.78;;;3.84;100.00
19748;BME280;10032;51.386;12.516;2022-12-07T07:24:55;99793.38;;;3.88;100.00
19748;BME280;10032;51.386;12.516;2022-12-07T07:27:21;99791.69;;;3.87;100.00
19748;BME280;10032;51.386;12.516;2022-12-07T07:29:46;99796.84;;;3.89;100.00
19748;BME280;10032;51.386;12.516;2022-12-07T07:32:11;99789.66;;;3.89;100.00
19748;BME280;10032;51.386;12.516;2022-12-07T07:34:37;99797.22;;;3.92;100.00
19748;BME280;10032;51.386;12.516;2022-12-07T07:37:03;99798.66;;;3.95;100.00
19748;BME280;10032;51.386;12.516;2022-12-07T07:39:28;99794.72;;;3.97;100.00
19748;BME280;10032;51.386;12.516;2022-12-07T07:41:54;99796.78;;;4.02;100.00
19748;BME280;10032;51.386;12.516;2022-12-07T07:44:19;99803.78;;;4.03;100.00
19748;BME280;10032;51.386;12.516;2022-12-07T07:46:44;99800.25;;;4.02;100.00
19748;BME280;10032;51.386;12.516;2022-12-07T07:49:10;99799.84;;;4.05;100.00
19748;BME280;10032;51.386;12.516;2022-12-07T07:51:36;99802.06;;;4.08;100.00
19748;BME280;10032;51.386;12.516;2022-12-07T07:54:02;99799.81;;;4.12;100.00
19748;BME280;10032;51.386;12.516;2022-12-07T07:56:27;99803.91;;;4.14;100.00
19748;BME280;10032;51.386;12.516;2022-12-07T07:58:53;99797.94;;;4.12;100.00
19748;BME280;10032;51.386;12.516;2022-12-07T08:01:19;99798.09;;;4.17;100.00
19748;BME280;10032;51.386;12.516;2022-12-07T08:03:46;99804.88;;;4.20;100.00
19748;BME280;10032;51.386;12.516;2022-12-07T08:06:11;99799.31;;;4.21;100.00
19748;BME280;10032;51.386;12.516;2022-12-07T08:08:37;99808.41;;;4.20;100.00
19748;BME280;10032;51.386;12.516;2022-12-07T08:11:06;99802.00;;;4.21;100.00
19748;BME280;10032;51.386;12.516;2022-12-07T08:13:32;99803.63;;;4.22;100.00
19748;BME280;10032;51.386;12.516;2022-12-07T08:15:58;99808.41;;;4.20;100.00
19748;BME280;10032;51.386;12.516;2022-12-07T08:18:24;99814.19;;;4.17;100.00
19748;BME280;10032;51.386;12.516;2022-12-07T08:20:49;99805.34;;;4.17;100.00
19748;BME280;10032;51.386;12.516;2022-12-07T08:23:14;99817.91;;;4.16;100.00
19748;BME280;10032;51.386;12.516;2022-12-07T08:25:40;99798.56;;;4.14;100.00
19748;BME280;10032;51.386;12.516;2022-12-07T08:28:05;99801.38;;;4.19;100.00
19748;BME280;10032;51.386;12.516;2022-12-07T08:30:31;99800.97;;;4.22;100.00
19748;BME280;10032;51.386;12.516;2022-12-07T08:32:57;99798.44;;;4.27;100.00
19748;BME280;10032;51.386;12.516;2022-12-07T08:35:23;99798.41;;;4.34;100.00
19748;BME280;10032;51.386;12.516;2022-12-07T08:37:48;99797.31;;;4.41;100.00
19748;BME280;10032;51.386;12.516;2022-12-07T08:40:14;99796.66;;;4.46;100.00
19748;BME280;10032;51.386;12.516;2022-12-07T08:42:43;99795.19;;;4.50;100.00
19748;BME280;10032;51.386;12.516;2022-12-07T08:45:12;99791.25;;;4.52;100.00
19748;BME280;10032;51.386;12.516;2022-12-07T08:50:12;99803.94;;;4.63;100.00
19748;BME280;10032;51.386;12.516;2022-12-07T08:52:39;99810.94;;;4.64;100.00
19748;BME280;10032;51.386;12.516;2022-12-07T08:55:05;99807.19;;;4.65;100.00
19748;BME280;10032;51.386;12.516;2022-12-07T08:57:33;99810.03;;;4.70;100.00
19748;BME280;10032;51.386;12.516;2022-12-07T08:59:59;99807.56;;;4.69;100.00
19748;BME280;10032;51.386;12.516;2022-12-07T09:02:25;99809.00;;;4.71;100.00
19748;BME280;10032;51.386;12.516;2022-12-07T09:04:50;99813.25;;;4.79;100.00
19748;BME280;10032;51.386;12.516;2022-12-07T09:07:16;99814.09;;;4.79;100.00
19748;BME280;10032;51.386;12.516;2022-12-07T09:09:41;99809.47;;;4.86;100.00
19748;BME280;10032;51.386;12.516;2022-12-07T09:12:07;99805.31;;;4.90;100.00
19748;BME280;10032;51.386;12.516;2022-12-07T09:14:33;99809.44;;;4.93;100.00
19748;BME280;10032;51.386;12.516;2022-12-07T09:17:09;99815.53;;;5.00;100.00
19748;BME280;10032;51.386;12.516;2022-12-07T09:19:35;99822.53;;;5.01;100.00
19748;BME280;10032;51.386;12.516;2022-12-07T09:22:01;99815.47;;;5.06;100.00
19748;BME280;10032;51.386;12.516;2022-12-07T09:24:27;99824.38;;;5.07;100.00
19748;BME280;10032;51.386;12.516;2022-12-07T09:26:52;99824.53;;;5.12;100.00
19748;BME280;10032;51.386;12.516;2022-12-07T09:29:18;99821.00;;;5.11;100.00
19748;BME280;10032;51.386;12.516;2022-12-07T09:31:43;99821.97;;;5.17;100.00
19748;BME280;10032;51.386;12.516;2022-12-07T09:34:09;99818.63;;;5.21;100.00
19748;BME280;10032;51.386;12.516;2022-12-07T09:36:34;99817.56;;;5.22;100.00
19748;BME280;10032;51.386;12.516;2022-12-07T09:39:00;99819.38;;;5.28;100.00
19748;BME280;10032;51.386;12.516;2022-12-07T09:41:27;99809.34;;;5.35;100.00
19748;BME280;10032;51.386;12.516;2022-12-07T09:43:58;99808.09;;;5.38;100.00
19748;BME280;10032;51.386;12.516;2022-12-07T09:46:25;99808.50;;;5.41;100.00
19748;BME280;10032;51.386;12.516;2022-12-07T09:48:51;99817.72;;;5.45;100.00
19748;BME280;10032;51.386;12.516;2022-12-07T09:51:22;99809.66;;;5.45;100.00
19748;BME280;10032;51.386;12.516;2022-12-07T09:53:49;99807.22;;;5.44;100.00
19748;BME280;10032;51.386;12.516;2022-12-07T09:56:17;99808.03;;;5.44;100.00
19748;BME280;10032;51.386;12.516;2022-12-07T09:58:44;99804.13;;;5.40;100.00
19748;BME280;10032;51.386;12.516;2022-12-07T10:01:20;99802.81;;;5.31;100.00
19748;BME280;10032;51.386;12.516;2022-12-07T10:06:34;99798.78;;;5.22;100.00
19748;BME280;10032;51.386;12.516;2022-12-07T10:08:59;99790.94;;;5.21;100.00
19748;BME280;10032;51.386;12.516;2022-12-07T10:11:24;99789.69;;;5.23;100.00
19748;BME280;10032;51.386;12.516;2022-12-07T10:13:53;99790.03;;;5.27;100.00
19748;BME280;10032;51.386;12.516;2022-12-07T10:18:53;99789.25;;;5.26;100.00
19748;BME280;10032;51.386;12.516;2022-12-07T10:21:24;99795.94;;;5.35;100.00
19748;BME280;10032;51.386;12.516;2022-12-07T10:29:28;99784.00;;;5.49;100.00
19748;BME280;10032;51.386;12.516;2022-12-07T10:31:57;99776.28;;;5.53;100.00
19748;BME280;10032;51.386;12.516;2022-12-07T10:34:26;99784.28;;;5.59;100.00
19748;BME280;10032;51.386;12.516;2022-12-07T10:36:53;99778.47;;;5.62;100.00
19748;BME280;10032;51.386;12.516;2022-12-07T10:39:21;99775.16;;;5.60;100.00
19748;BME280;10032;51.386;12.516;2022-12-07T10:42:00;99776.34;;;5.64;100.00
19748;BME280;10032;51.386;12.516;2022-12-07T10:44:31;99778.81;;;5.66;100.00
19748;BME280;10032;51.386;12.516;2022-12-07T11:01:27;99765.72;;;5.87;100.00
19748;BME280;10032;51.386;12.516;2022-12-07T11:11:55;99766.91;;;5.91;100.00
19748;BME280;10032;51.386;12.516;2022-12-07T11:14:43;99760.97;;;5.89;100.00
19748;BME280;10032;51.386;12.516;2022-12-07T11:17:36;99753.59;;;5.96;100.00
19748;BME280;10032;51.386;12.516;2022-12-07T11:20:14;99745.09;;;5.99;100.00
19748;BME280;10032;51.386;12.516;2022-12-07T11:34:11;99750.25;;;6.12;100.00
19748;BME280;10032;51.386;12.516;2022-12-07T11:36:42;99749.69;;;6.10;100.00
19748;BME280;10032;51.386;12.516;2022-12-07T11:41:44;99758.97;;;5.96;100.00
19748;BME280;10032;51.386;12.516;2022-12-07T11:44:47;99761.97;;;5.88;100.00
19748;BME280;10032;51.386;12.516;2022-12-07T11:47:43;99760.69;;;5.91;100.00
19748;BME280;10032;51.386;12.516;2022-12-07T11:50:29;99755.59;;;5.89;100.00
19748;BME280;10032;51.386;12.516;2022-12-07T11:53:10;99756.16;;;5.91;100.00
19748;BME280;10032;51.386;12.516;2022-12-07T11:55:50;99762.13;;;5.93;100.00
19748;BME280;10032;51.386;12.516;2022-12-07T12:03:45;99760.63;;;5.97;100.00
19748;BME280;10032;51.386;12.516;2022-12-07T12:06:12;99762.13;;;5.93;100.00
19748;BME280;10032;51.386;12.516;2022-12-07T12:14:19;99743.91;;;5.95;100.00
19748;BME280;10032;51.386;12.516;2022-12-07T12:19:33;99734.78;;;5.96;100.00
19748;BME280;10032;51.386;12.516;2022-12-07T12:22:15;99734.91;;;6.01;100.00
19748;BME280;10032;51.386;12.516;2022-12-07T12:24:43;99731.31;;;6.07;100.00
19748;BME280;10032;51.386;12.516;2022-12-07T12:27:21;99729.91;;;6.05;100.00
19748;BME280;10032;51.386;12.516;2022-12-07T12:29:54;99732.72;;;6.10;100.00
19748;BME280;10032;51.386;12.516;2022-12-07T12:32:22;99729.31;;;6.14;100.00
19748;BME280;10032;51.386;12.516;2022-12-07T12:35:02;99730.16;;;6.15;100.00
19748;BME280;10032;51.386;12.516;2022-12-07T12:42:52;99729.44;;;6.19;100.00
19748;BME280;10032;51.386;12.516;2022-12-07T12:45:32;99729.81;;;6.23;100.00
19748;BME280;10032;51.386;12.516;2022-12-07T12:53:13;99718.47;;;6.32;100.00
19748;BME280;10032;51.386;12.516;2022-12-07T13:03:56;99705.59;;;6.34;100.00
19748;BME280;10032;51.386;12.516;2022-12-07T13:08:51;99712.03;;;6.33;100.00
19748;BME280;10032;51.386;12.516;2022-12-07T13:11:44;99701.88;;;6.35;100.00
19748;BME280;10032;51.386;12.516;2022-12-07T13:14:43;99700.94;;;6.30;100.00
19748;BME280;10032;51.386;12.516;2022-12-07T13:20:02;99700.44;;;6.33;100.00
19748;BME280;10032;51.386;12.516;2022-12-07T13:25:05;99692.88;;;6.41;100.00
19748;BME280;10032;51.386;12.516;2022-12-07T13:27:35;99700.34;;;6.39;100.00
19748;BME280;10032;51.386;12.516;2022-12-07T13:30:17;99696.59;;;6.40;100.00
19748;BME280;10032;51.386;12.516;2022-12-07T13:32:51;99696.03;;;6.38;100.00
19748;BME280;10032;51.386;12.516;2022-12-07T13:35:34;99691.72;;;6.37;100.00
19748;BME280;10032;51.386;12.516;2022-12-07T13:38:02;99695.47;;;6.36;100.00
19748;BME280;10032;51.386;12.516;2022-12-07T13:40:29;99691.09;;;6.35;100.00
19748;BME280;10032;51.386;12.516;2022-12-07T13:42:59;99688.91;;;6.32;100.00
19748;BME280;10032;51.386;12.516;2022-12-07T13:45:27;99689.47;;;6.34;100.00
19748;BME280;10032;51.386;12.516;2022-12-07T13:48:30;99698.59;;;6.33;100.00
19748;BME280;10032;51.386;12.516;2022-12-07T13:50:58;99688.28;;;6.30;100.00
19748;BME280;10032;51.386;12.516;2022-12-07T13:53:25;99682.56;;;6.27;100.00
19748;BME280;10032;51.386;12.516;2022-12-07T13:55:53;99695.56;;;6.30;100.00
19748;BME280;10032;51.386;12.516;2022-12-07T13:58:19;99687.00;;;6.33;100.00
19748;BME280;10032;51.386;12.516;2022-12-07T14:00:44;99699.53;;;6.27;100.00
19748;BME280;10032;51.386;12.516;2022-12-07T14:05:39;99701.50;;;6.32;100.00
19748;BME280;10032;51.386;12.516;2022-12-07T14:08:22;99701.38;;;6.27;100.00
19748;BME280;10032;51.386;12.516;2022-12-07T14:13:38;99702.81;;;6.18;100.00
19748;BME280;10032;51.386;12.516;2022-12-07T14:16:54;99695.88;;;6.22;100.00
19748;BME280;10032;51.386;12.516;2022-12-07T14:22:34;99699.16;;;6.12;100.00
19748;BME280;10032;51.386;12.516;2022-12-07T14:25:18;99715.28;;;6.12;100.00
19748;BME280;10032;51.386;12.516;2022-12-07T14:27:58;99709.34;;;6.10;100.00
19748;BME280;10032;51.386;12.516;2022-12-07T14:30:26;99712.03;;;6.10;100.00
19748;BME280;10032;51.386;12.516;2022-12-07T14:33:00;99708.16;;;6.06;100.00
19748;BME280;10032;51.386;12.516;2022-12-07T14:35:26;99707.59;;;6.04;100.00
19748;BME280;10032;51.386;12.516;2022-12-07T14:37:52;99700.53;;;6.03;100.00
19748;BME280;10032;51.386;12.516;2022-12-07T14:40:27;99710.00;;;5.94;100.00
19748;BME280;10032;51.386;12.516;2022-12-07T14:43:00;99705.91;;;5.92;100.00
19748;BME280;10032;51.386;12.516;2022-12-07T14:45:26;99701.81;;;5.89;100.00
19748;BME280;10032;51.386;12.516;2022-12-07T14:47:52;99705.78;;;5.87;100.00
19748;BME280;10032;51.386;12.516;2022-12-07T14:50:19;99706.00;;;5.85;100.00
19748;BME280;10032;51.386;12.516;2022-12-07T14:53:12;99708.56;;;5.80;100.00
19748;BME280;10032;51.386;12.516;2022-12-07T14:55:39;99697.66;;;5.75;100.00
19748;BME280;10032;51.386;12.516;2022-12-07T14:58:04;99691.91;;;5.72;100.00
19748;BME280;10032;51.386;12.516;2022-12-07T15:00:29;99698.56;;;5.69;100.00
19748;BME280;10032;51.386;12.516;2022-12-07T15:02:55;99698.22;;;5.66;100.00
19748;BME280;10032;51.386;12.516;2022-12-07T15:05:21;99691.56;;;5.68;100.00
19748;BME280;10032;51.386;12.516;2022-12-07T15:07:48;99695.31;;;5.67;100.00
19748;BME280;10032;51.386;12.516;2022-12-07T15:10:20;99699.00;;;5.66;100.00
19748;BME280;10032;51.386;12.516;2022-12-07T15:12:46;99701.56;;;5.61;100.00
19748;BME280;10032;51.386;12.516;2022-12-07T15:15:12;99698.75;;;5.56;100.00
19748;BME280;10032;51.386;12.516;2022-12-07T15:17:37;99704.13;;;5.56;100.00
19748;BME280;10032;51.386;12.516;2022-12-07T15:20:03;99706.22;;;5.54;100.00